createdAt,value
2023-03-03T00:02:01.442Z,60.95
2023-03-03T00:04:28.806Z,62.63
2023-03-03T00:06:56.050Z,56.45
2023-03-03T00:09:23.272Z,56.38
2023-03-03T00:11:55.916Z,58.85
2023-03-03T00:14:32.864Z,52.75
2023-03-03T00:17:10.561Z,60.33
2023-03-03T00:19:40.767Z,58.90
2023-03-03T00:22:25.277Z,55.72
2023-03-03T00:24:52.828Z,62.30
2023-03-03T00:27:35.399Z,66.03
2023-03-03T00:30:03.376Z,71.15
2023-03-03T00:32:43.415Z,71.90
2023-03-03T00:35:27.381Z,62.67
2023-03-03T00:38:01.160Z,61.70
2023-03-03T00:40:39.570Z,64.90
2023-03-03T00:43:33.379Z,64.93
2023-03-03T00:46:00.790Z,65.47
2023-03-03T00:48:42.554Z,67.07
2023-03-03T00:51:29.897Z,64.05
2023-03-03T00:53:59.234Z,62.35
2023-03-03T00:56:27.410Z,60.85
2023-03-03T00:58:54.783Z,66.78
2023-03-03T01:01:25.000Z,61.55
2023-03-03T01:03:53.915Z,60.70
2023-03-03T01:06:21.231Z,63.95
2023-03-03T01:08:48.560Z,60.25
2023-03-03T01:11:21.529Z,65.40
2023-03-03T01:13:50.531Z,69.22
2023-03-03T01:16:19.051Z,59.60
2023-03-03T01:18:46.703Z,58.72
2023-03-03T01:21:14.295Z,61.38
2023-03-03T01:23:41.895Z,67.82
2023-03-03T01:26:09.339Z,65.82
2023-03-03T01:28:36.619Z,55.33
2023-03-03T01:31:05.785Z,59.17
2023-03-03T01:33:34.917Z,65.15
2023-03-03T01:36:03.940Z,60.88
2023-03-03T01:38:31.433Z,54.70
2023-03-03T01:40:59.873Z,58.67
2023-03-03T01:43:30.559Z,60.03
2023-03-03T01:45:57.864Z,56.42
2023-03-03T01:48:44.176Z,56.90
2023-03-03T01:51:25.679Z,68.32
2023-03-03T01:54:02.138Z,57.58
2023-03-03T01:56:30.266Z,63.08
2023-03-03T01:59:05.043Z,64.72
2023-03-03T02:01:33.547Z,57.60
2023-03-03T02:04:01.207Z,66.82
2023-03-03T02:06:37.638Z,58.55
2023-03-03T02:09:45.260Z,55.88
2023-03-03T02:12:16.514Z,57.72
2023-03-03T02:14:44.132Z,53.53
2023-03-03T02:17:11.761Z,67.90
2023-03-03T02:20:10.960Z,64.32
2023-03-03T02:22:56.019Z,62.30
2023-03-03T02:25:58.147Z,59.17
2023-03-03T02:28:33.122Z,64.85
2023-03-03T02:31:12.790Z,66.65
2023-03-03T02:33:45.995Z,65.30
2023-03-03T02:36:21.466Z,58.78
2023-03-03T02:38:59.479Z,63.60
2023-03-03T02:41:53.181Z,52.47
2023-03-03T02:44:27.897Z,63.58
2023-03-03T02:46:56.444Z,60.42
2023-03-03T02:49:31.521Z,58.00
2023-03-03T02:52:00.721Z,59.72
2023-03-03T02:54:30.409Z,65.32
2023-03-03T02:57:00.116Z,54.45
2023-03-03T02:59:28.189Z,60.63
2023-03-03T03:01:57.706Z,57.35
2023-03-03T03:04:27.089Z,55.78
2023-03-03T03:06:55.995Z,76.70
2023-03-03T03:09:25.774Z,60.78
2023-03-03T03:11:54.435Z,90.38
2023-03-03T03:14:25.479Z,56.45
2023-03-03T03:16:54.368Z,54.60
2023-03-03T03:19:21.809Z,69.15
2023-03-03T03:21:49.107Z,78.80
2023-03-03T03:24:17.592Z,57.53
2023-03-03T03:26:50.311Z,68.25
2023-03-03T03:29:18.082Z,60.30
2023-03-03T03:31:45.371Z,71.70
2023-03-03T03:34:12.615Z,50.47
2023-03-03T03:36:39.945Z,61.47
2023-03-03T03:39:08.249Z,57.22
2023-03-03T03:41:39.152Z,60.97
2023-03-03T03:44:06.638Z,59.03
2023-03-03T03:46:34.057Z,65.38
2023-03-03T03:49:01.830Z,52.47
2023-03-03T03:51:29.632Z,58.75
2023-03-03T03:53:57.156Z,68.53
2023-03-03T03:56:24.527Z,58.83
2023-03-03T03:58:55.736Z,57.38
2023-03-03T04:01:22.964Z,65.47
2023-03-03T04:03:51.098Z,68.05
2023-03-03T04:06:22.128Z,71.63
2023-03-03T04:08:49.325Z,65.20
2023-03-03T04:11:18.705Z,63.90
2023-03-03T04:13:46.173Z,65.40
2023-03-03T04:16:13.527Z,64.45
2023-03-03T04:18:45.502Z,70.25
2023-03-03T04:21:15.494Z,61.17
2023-03-03T04:23:43.840Z,70.68
2023-03-03T04:26:11.122Z,64.25
2023-03-03T04:28:39.146Z,66.90
2023-03-03T04:31:07.473Z,59.95
2023-03-03T04:33:35.645Z,59.15
2023-03-03T04:36:05.153Z,71.40
2023-03-03T04:38:32.506Z,58.45
2023-03-03T04:41:00.302Z,61.90
2023-03-03T04:43:30.807Z,64.18
2023-03-03T04:45:58.642Z,58.95
2023-03-03T04:48:26.410Z,65.75
2023-03-03T04:50:54.301Z,66.35
2023-03-03T04:53:22.174Z,67.25
2023-03-03T04:55:53.633Z,78.57
2023-03-03T04:58:22.119Z,69.85
2023-03-03T05:00:55.460Z,63.95
2023-03-03T05:03:23.216Z,59.70
2023-03-03T05:05:50.619Z,62.72
2023-03-03T05:08:18.442Z,59.55
2023-03-03T05:10:45.740Z,65.00
2023-03-03T05:13:14.806Z,57.88
2023-03-03T05:15:43.355Z,76.75
2023-03-03T05:18:11.867Z,61.35
2023-03-03T05:20:41.465Z,62.15
2023-03-03T05:23:08.670Z,56.83
2023-03-03T05:25:35.867Z,59.85
2023-03-03T05:28:04.083Z,68.28
2023-03-03T05:30:31.422Z,66.28
2023-03-03T05:32:59.046Z,62.75
2023-03-03T05:35:26.823Z,62.78
2023-03-03T05:37:54.715Z,71.18
2023-03-03T05:40:21.916Z,65.80
2023-03-03T05:42:49.239Z,74.40
2023-03-03T05:45:19.825Z,69.13
2023-03-03T05:47:47.954Z,68.20
2023-03-03T05:50:15.507Z,70.38
2023-03-03T05:52:42.868Z,67.57
2023-03-03T05:55:11.334Z,65.82
2023-03-03T05:57:38.626Z,77.72
2023-03-03T06:00:08.493Z,74.25
2023-03-03T06:02:42.421Z,77.88
2023-03-03T06:05:11.381Z,82.18
2023-03-03T06:07:39.415Z,73.63
2023-03-03T06:10:08.044Z,79.68
2023-03-03T06:12:38.516Z,79.30
2023-03-03T06:15:07.411Z,72.95
2023-03-03T06:17:34.711Z,93.85
2023-03-03T06:20:03.640Z,93.15
2023-03-03T06:22:31.358Z,75.35
2023-03-03T06:24:58.625Z,87.75
2023-03-03T06:27:25.935Z,88.90
2023-03-03T06:29:53.172Z,84.15
2023-03-03T06:32:20.516Z,82.20
2023-03-03T06:34:47.833Z,102.05
2023-03-03T06:37:15.111Z,100.88
2023-03-03T06:39:42.841Z,85.80
2023-03-03T06:42:12.856Z,77.53
2023-03-03T06:44:40.087Z,95.75
2023-03-03T06:47:07.250Z,105.47
2023-03-03T06:49:34.508Z,94.82
2023-03-03T06:52:13.721Z,99.55
2023-03-03T06:54:41.334Z,82.88
2023-03-03T06:57:28.697Z,86.50
2023-03-03T07:00:05.875Z,75.25
2023-03-03T07:02:33.119Z,86.63
2023-03-03T07:05:01.387Z,80.45
2023-03-03T07:07:28.581Z,85.45
2023-03-03T07:09:57.027Z,92.47
2023-03-03T07:12:29.707Z,83.13
2023-03-03T07:15:32.661Z,81.32
2023-03-03T07:17:59.988Z,93.70
2023-03-03T07:20:36.184Z,106.85
2023-03-03T07:23:41.836Z,95.57
2023-03-03T07:26:24.822Z,108.07
2023-03-03T07:29:00.398Z,93.72
2023-03-03T07:31:40.917Z,100.50
2023-03-03T07:34:22.866Z,114.53
2023-03-03T07:36:55.006Z,85.00
2023-03-03T07:39:40.780Z,72.22
2023-03-03T07:42:43.788Z,81.07
2023-03-03T07:45:28.630Z,74.22
2023-03-03T07:48:18.884Z,78.68
2023-03-03T07:50:47.025Z,85.00
2023-03-03T07:53:27.014Z,98.93
2023-03-03T07:55:54.582Z,82.55
2023-03-03T07:58:38.478Z,81.45
2023-03-03T08:01:40.457Z,83.43
2023-03-03T08:04:51.838Z,91.53
2023-03-03T08:07:23.196Z,72.25
2023-03-03T08:10:01.454Z,79.13
2023-03-03T08:12:41.598Z,92.53
2023-03-03T08:15:19.753Z,86.30
2023-03-03T08:17:51.026Z,84.03
2023-03-03T08:20:50.970Z,75.88
2023-03-03T08:23:19.914Z,76.10
2023-03-03T08:25:49.468Z,93.70
2023-03-03T08:30:45.168Z,75.07
2023-03-03T08:33:14.107Z,81.40
2023-03-03T08:35:42.491Z,99.68
2023-03-03T08:38:11.798Z,83.03
2023-03-03T08:40:39.303Z,71.05
2023-03-03T08:43:06.666Z,82.25
2023-03-03T08:45:35.090Z,97.20
2023-03-03T08:48:05.614Z,85.28
2023-03-03T08:50:33.437Z,66.97
2023-03-03T08:53:00.741Z,65.03
2023-03-03T08:55:27.861Z,80.07
2023-03-03T08:57:55.085Z,71.78
2023-03-03T09:00:22.697Z,80.47
2023-03-03T09:02:51.154Z,73.95
2023-03-03T09:05:21.070Z,67.82
2023-03-03T09:07:50.842Z,68.18
2023-03-03T09:10:26.922Z,71.10
2023-03-03T09:12:57.646Z,67.50
2023-03-03T09:15:32.017Z,67.78
2023-03-03T09:18:08.282Z,59.75
2023-03-03T09:20:43.395Z,67.18
2023-03-03T09:23:33.421Z,63.28
2023-03-03T09:26:46.248Z,59.95
2023-03-03T09:29:28.540Z,64.45
2023-03-03T09:32:37.165Z,69.60
2023-03-03T09:35:40.548Z,73.30
2023-03-03T09:38:32.879Z,71.72
2023-03-03T09:41:17.661Z,86.53
2023-03-03T09:44:03.139Z,75.63
2023-03-03T09:47:22.585Z,75.05
2023-03-03T09:50:08.662Z,74.82
2023-03-03T09:53:03.705Z,71.10
2023-03-03T09:55:58.529Z,82.20
2023-03-03T09:58:45.061Z,84.93
2023-03-03T10:01:31.093Z,74.93
2023-03-03T10:04:40.154Z,76.32
2023-03-03T10:07:29.680Z,71.03
2023-03-03T10:10:24.688Z,68.15
2023-03-03T10:13:23.730Z,74.78
2023-03-03T10:16:41.459Z,70.97
2023-03-03T10:19:39.961Z,67.03
2023-03-03T10:22:28.963Z,63.83
2023-03-03T10:25:26.643Z,64.90
2023-03-03T10:28:45.031Z,69.25
2023-03-03T10:31:44.496Z,65.32
2023-03-03T10:37:26.287Z,85.05
2023-03-03T10:40:23.781Z,65.28
2023-03-03T10:43:40.105Z,69.65
2023-03-03T10:46:38.106Z,75.32
2023-03-03T10:49:38.682Z,60.95
2023-03-03T10:52:38.003Z,66.30
2023-03-03T10:55:21.490Z,59.22
2023-03-03T10:58:20.302Z,62.03
2023-03-03T11:01:09.190Z,56.35
2023-03-03T11:03:55.567Z,74.72
2023-03-03T11:06:41.455Z,59.30
2023-03-03T11:09:32.879Z,72.75
2023-03-03T11:12:25.240Z,74.03
2023-03-03T11:15:21.782Z,46.60
2023-03-03T11:18:13.443Z,48.88
2023-03-03T11:21:07.913Z,40.45
2023-03-03T11:24:04.688Z,48.13
2023-03-03T11:27:11.734Z,69.50
2023-03-03T11:30:22.156Z,54.85
2023-03-03T11:33:07.423Z,50.33
2023-03-03T11:36:17.472Z,49.22
2023-03-03T11:39:00.474Z,42.78
2023-03-03T11:41:48.815Z,40.22
2023-03-03T11:44:36.347Z,56.08
2023-03-03T11:47:29.641Z,69.80
2023-03-03T11:50:24.865Z,51.63
2023-03-03T11:53:25.687Z,52.60
2023-03-03T11:56:07.002Z,69.70
2023-03-03T11:58:39.653Z,50.03
2023-03-03T12:01:40.697Z,58.10
2023-03-03T12:04:19.607Z,78.45
2023-03-03T12:07:30.184Z,59.33
2023-03-03T12:10:16.999Z,66.55
2023-03-03T12:13:00.839Z,64.05
2023-03-03T12:16:09.801Z,83.80
2023-03-03T12:19:09.397Z,64.63
2023-03-03T12:22:30.683Z,68.65
2023-03-03T12:25:31.551Z,73.63
2023-03-03T12:28:25.129Z,73.10
2023-03-03T12:30:58.000Z,57.05
2023-03-03T12:34:08.914Z,64.25
2023-03-03T12:36:49.962Z,68.80
2023-03-03T12:39:47.545Z,72.60
2023-03-03T12:42:53.794Z,65.93
2023-03-03T12:45:45.112Z,72.28
2023-03-03T12:48:32.916Z,96.93
2023-03-03T12:51:37.314Z,73.10
2023-03-03T12:54:29.422Z,67.90
2023-03-03T12:57:26.775Z,73.03
2023-03-03T13:00:24.875Z,63.38
2023-03-03T13:03:32.431Z,75.40
2023-03-03T13:06:21.903Z,72.25
2023-03-03T13:09:28.021Z,77.60
2023-03-03T13:12:26.030Z,62.40
2023-03-03T13:15:16.163Z,63.65
2023-03-03T13:18:07.350Z,79.60
2023-03-03T13:21:02.294Z,68.38
2023-03-03T13:23:49.458Z,71.35
2023-03-03T13:26:35.588Z,78.97
2023-03-03T13:29:23.812Z,73.95
2023-03-03T13:32:19.226Z,67.97
2023-03-03T13:34:51.545Z,68.05
2023-03-03T13:37:48.894Z,79.25
2023-03-03T13:40:36.798Z,83.20
2023-03-03T13:43:21.663Z,73.60
2023-03-03T13:46:40.818Z,87.65
2023-03-03T13:49:46.609Z,78.93
2023-03-03T13:52:36.709Z,97.60
2023-03-03T13:55:27.186Z,84.40
2023-03-03T13:58:20.675Z,81.68
2023-03-03T14:01:30.270Z,83.70
2023-03-03T14:04:36.435Z,79.50
2023-03-03T14:07:16.066Z,76.75
2023-03-03T14:13:08.245Z,81.35
2023-03-03T14:16:20.444Z,79.25
2023-03-03T14:19:04.059Z,73.80
2023-03-03T14:21:43.126Z,90.15
2023-03-03T14:24:20.945Z,79.70
2023-03-03T14:26:51.633Z,72.18
2023-03-03T14:29:37.033Z,81.88
2023-03-03T14:32:39.418Z,82.07
2023-03-03T14:35:21.570Z,70.88
2023-03-03T14:37:50.385Z,64.32
2023-03-03T14:40:30.115Z,73.93
2023-03-03T14:43:01.399Z,73.07
2023-03-03T14:45:37.845Z,80.68
2023-03-03T14:48:24.779Z,76.28
2023-03-03T14:51:15.072Z,78.65
2023-03-03T14:53:47.587Z,93.78
2023-03-03T14:56:27.433Z,71.88
2023-03-03T14:59:22.637Z,75.22
2023-03-03T15:02:10.307Z,81.32
2023-03-03T15:04:38.258Z,69.00
2023-03-03T15:07:36.860Z,64.30
2023-03-03T15:10:07.101Z,74.30
2023-03-03T15:12:37.812Z,65.22
2023-03-03T15:15:17.782Z,61.38
2023-03-03T15:18:03.566Z,65.43
2023-03-03T15:20:58.957Z,53.53
2023-03-03T15:23:44.078Z,62.40
2023-03-03T15:26:25.463Z,59.38
2023-03-03T15:29:23.625Z,53.60
2023-03-03T15:31:58.375Z,53.40
2023-03-03T15:34:39.370Z,48.30
2023-03-03T15:37:40.552Z,54.22
2023-03-03T15:40:27.791Z,45.45
2023-03-03T15:43:34.960Z,58.10
2023-03-03T15:46:46.577Z,56.75
2023-03-03T15:49:52.412Z,58.10
2023-03-03T15:52:47.295Z,63.95
2023-03-03T15:55:27.968Z,71.68
2023-03-03T15:58:34.012Z,47.40
2023-03-03T16:01:38.627Z,50.08
2023-03-03T16:04:17.468Z,55.15
2023-03-03T16:07:28.865Z,65.00
2023-03-03T16:10:15.605Z,67.47
2023-03-03T16:13:23.101Z,49.28
2023-03-03T16:16:12.986Z,63.78
2023-03-03T16:18:40.641Z,52.60
2023-03-03T16:21:19.845Z,73.18
2023-03-03T16:23:56.278Z,68.28
2023-03-03T16:26:57.978Z,54.63
2023-03-03T16:29:38.121Z,51.13
2023-03-03T16:32:22.039Z,57.75
2023-03-03T16:35:13.169Z,52.90
2023-03-03T16:37:45.207Z,59.40
2023-03-03T16:40:27.796Z,66.03
2023-03-03T16:43:14.450Z,71.90
2023-03-03T16:45:42.063Z,85.20
2023-03-03T16:48:28.193Z,77.63
2023-03-03T16:51:51.957Z,67.85
2023-03-03T16:54:37.126Z,81.40
2023-03-03T16:57:41.367Z,79.65
2023-03-03T17:00:37.044Z,66.05
2023-03-03T17:03:50.344Z,78.43
2023-03-03T17:06:53.754Z,71.70
2023-03-03T17:10:10.236Z,63.22
2023-03-03T17:12:57.273Z,62.92
2023-03-03T17:15:47.715Z,64.70
2023-03-03T17:18:31.865Z,67.72
2023-03-03T17:21:08.353Z,77.32
2023-03-03T17:23:53.396Z,70.85
2023-03-03T17:26:57.019Z,82.25
2023-03-03T17:29:54.110Z,79.95
2023-03-03T17:32:33.395Z,81.40
2023-03-03T17:35:25.187Z,98.30
2023-03-03T17:38:34.440Z,73.70
2023-03-03T17:41:13.135Z,68.88
2023-03-03T17:44:08.337Z,88.33
2023-03-03T17:46:46.957Z,95.68
2023-03-03T17:50:16.605Z,81.53
2023-03-03T17:53:19.980Z,87.60
2023-03-03T17:56:17.496Z,85.97
2023-03-03T17:59:06.131Z,82.57
2023-03-03T18:01:55.138Z,88.77
2023-03-03T18:04:43.213Z,85.38
2023-03-03T18:07:20.942Z,121.95
2023-03-03T18:10:09.348Z,101.72
2023-03-03T18:12:55.645Z,88.22
2023-03-03T18:16:12.035Z,86.57
2023-03-03T18:19:12.080Z,89.88
2023-03-03T18:21:48.412Z,88.72
2023-03-03T18:24:24.720Z,87.88
2023-03-03T18:26:55.914Z,82.18
2023-03-03T18:29:28.035Z,84.63
2023-03-03T18:31:58.358Z,79.78
2023-03-03T18:35:14.104Z,81.40
2023-03-03T18:37:44.549Z,85.43
2023-03-03T18:40:14.799Z,80.45
2023-03-03T18:42:44.779Z,95.43
2023-03-03T18:45:32.118Z,86.63
2023-03-03T18:47:59.881Z,82.68
2023-03-03T18:50:37.749Z,84.85
2023-03-03T18:53:17.440Z,74.70
2023-03-03T18:55:51.308Z,72.28
2023-03-03T18:58:18.476Z,79.82
2023-03-03T19:00:54.310Z,79.22
2023-03-03T19:03:31.922Z,83.70
2023-03-03T19:06:00.930Z,90.22
2023-03-03T19:08:57.333Z,77.63
2023-03-03T19:11:40.718Z,83.05
2023-03-03T19:14:16.837Z,80.00
2023-03-03T19:16:45.037Z,98.72
2023-03-03T19:19:29.314Z,113.88
2023-03-03T19:22:26.957Z,113.35
2023-03-03T19:25:15.360Z,103.05
2023-03-03T19:27:57.788Z,91.35
2023-03-03T19:31:04.987Z,85.97
2023-03-03T19:33:58.816Z,82.28
2023-03-03T19:37:17.177Z,81.82
2023-03-03T19:40:16.270Z,85.65
2023-03-03T19:43:08.524Z,80.82
2023-03-03T19:45:53.830Z,87.45
2023-03-03T19:49:08.192Z,95.65
2023-03-03T19:52:00.209Z,94.22
2023-03-03T19:54:43.635Z,97.00
2023-03-03T19:57:54.936Z,88.75
2023-03-03T20:00:36.560Z,87.40
2023-03-03T20:03:38.061Z,94.35
2023-03-03T20:06:26.697Z,92.93
2023-03-03T20:09:04.574Z,79.27
2023-03-03T20:11:52.580Z,94.53
2023-03-03T20:14:34.616Z,90.88
2023-03-03T20:17:27.031Z,106.22
2023-03-03T20:20:43.195Z,107.65
2023-03-03T20:23:25.240Z,105.75
2023-03-03T20:26:14.025Z,99.18
2023-03-03T20:29:10.500Z,95.13
2023-03-03T20:32:30.508Z,100.68
2023-03-03T20:35:20.463Z,91.85
2023-03-03T20:38:09.004Z,103.45
2023-03-03T20:41:03.667Z,115.33
2023-03-03T20:43:36.582Z,91.78
2023-03-03T20:46:22.144Z,87.15
2023-03-03T20:49:23.326Z,85.90
2023-03-03T20:51:56.268Z,93.90
2023-03-03T20:54:50.992Z,86.63
2023-03-03T20:57:46.476Z,103.10
2023-03-03T21:00:23.901Z,124.28
2023-03-03T21:03:26.707Z,107.25
2023-03-03T21:06:03.433Z,97.05
2023-03-03T21:08:56.385Z,113.80
2023-03-03T21:11:30.926Z,101.10
2023-03-03T21:13:59.311Z,111.30
2023-03-03T21:16:26.431Z,93.15
2023-03-03T21:19:06.028Z,98.45
2023-03-03T21:24:03.752Z,103.60
2023-03-03T21:27:26.797Z,95.95
2023-03-03T21:30:12.422Z,97.30
2023-03-03T21:32:48.698Z,92.82
2023-03-03T21:35:21.638Z,90.15
2023-03-03T21:37:57.335Z,94.18
2023-03-03T21:40:29.984Z,89.10
2023-03-03T21:42:59.715Z,86.28
2023-03-03T21:45:27.299Z,87.50
2023-03-03T21:47:56.106Z,89.18
2023-03-03T21:50:23.986Z,83.05
2023-03-03T21:52:51.298Z,85.28
2023-03-03T21:55:18.520Z,88.85
2023-03-03T21:57:45.901Z,69.20
2023-03-03T22:00:13.672Z,83.13
2023-03-03T22:02:40.871Z,74.50
2023-03-03T22:05:08.491Z,81.38
2023-03-03T22:07:35.693Z,87.15
2023-03-03T22:10:03.207Z,78.95
2023-03-03T22:12:30.492Z,79.80
2023-03-03T22:14:57.615Z,88.75
2023-03-03T22:17:25.041Z,85.40
2023-03-03T22:19:53.042Z,98.40
2023-03-03T22:22:20.307Z,107.30
2023-03-03T22:24:47.540Z,97.47
2023-03-03T22:27:14.895Z,94.32
2023-03-03T22:29:42.268Z,96.70
2023-03-03T22:32:09.517Z,99.13
2023-03-03T22:34:36.984Z,101.57
2023-03-03T22:37:04.278Z,92.85
2023-03-03T22:39:31.400Z,98.40
2023-03-03T22:41:58.642Z,112.88
2023-03-03T22:44:25.857Z,94.60
2023-03-03T22:46:53.497Z,81.93
2023-03-03T22:49:20.696Z,80.82
2023-03-03T22:51:47.855Z,82.85
2023-03-03T22:54:15.065Z,87.65
2023-03-03T22:56:42.186Z,92.50
2023-03-03T22:59:09.287Z,95.25
2023-03-03T23:01:36.461Z,86.97
2023-03-03T23:04:03.944Z,94.43
2023-03-03T23:06:31.098Z,120.80
2023-03-03T23:08:58.299Z,96.80
2023-03-03T23:11:26.825Z,93.82
2023-03-03T23:13:54.156Z,93.38
2023-03-03T23:16:21.423Z,118.97
2023-03-03T23:18:48.635Z,94.95
2023-03-03T23:21:17.007Z,104.07
2023-03-03T23:23:44.167Z,106.07
2023-03-03T23:26:11.269Z,108.43
2023-03-03T23:28:38.425Z,111.15
2023-03-03T23:31:05.773Z,132.40
2023-03-03T23:33:34.747Z,102.85
2023-03-03T23:36:01.976Z,109.93
2023-03-03T23:38:29.136Z,106.00
2023-03-03T23:40:56.429Z,103.00
2023-03-03T23:43:23.696Z,105.40
2023-03-03T23:45:50.924Z,119.90
2023-03-03T23:48:20.089Z,116.85
2023-03-03T23:50:47.777Z,117.93
2023-03-03T23:53:14.976Z,127.50
2023-03-03T23:55:42.679Z,105.30
2023-03-03T23:58:09.831Z,118.55
